Terminal Aerodrome Forecast
Issued by NWS

Home | Current Version | Previous Version | Graphics & Text | Print | Product List | Glossary On
Versions: 1 2 3 4 5 6 7 8 9 10 11 12 13 14 15 16 17 18
000
FTUS43 KPAH 151100
TAFOWB
TAF
KOWB 151130Z 1512/1612 33012G18KT P6SM FEW025 BKN035
     FM151400 34014G22KT P6SM SCT045
     FM160000 VRB03KT P6SM SKC=

USA.gov is the U.S. government's official web portal to all federal, state and local government web resources and services.